createdAt,value
2019-01-29T00:03:59.311Z,4.65
2019-01-29T00:10:04.076Z,4.70
2019-01-29T00:16:06.358Z,4.53
2019-01-29T00:22:08.601Z,5.80
2019-01-29T00:28:11.050Z,5.37
2019-01-29T00:34:13.264Z,4.10
2019-01-29T00:40:15.377Z,4.75
2019-01-29T00:46:17.503Z,3.35
2019-01-29T00:52:19.706Z,3.27
2019-01-29T00:58:23.177Z,5.00
2019-01-29T01:04:25.480Z,4.75
2019-01-29T01:10:27.787Z,4.37
2019-01-29T01:16:29.893Z,5.03
2019-01-29T01:22:32.760Z,5.67
2019-01-29T01:28:35.996Z,5.92
2019-01-29T01:34:38.403Z,5.35
2019-01-29T01:40:40.882Z,5.10
2019-01-29T01:46:43.240Z,5.35
2019-01-29T01:52:46.483Z,6.33
2019-01-29T01:58:48.790Z,6.15
2019-01-29T02:04:50.911Z,6.00
2019-01-29T02:10:53.260Z,8.80
2019-01-29T02:16:55.403Z,5.97
2019-01-29T02:22:58.869Z,7.95
2019-01-29T02:29:00.978Z,8.05
2019-01-29T02:35:03.332Z,9.28
2019-01-29T02:41:05.593Z,7.05
2019-01-29T02:47:07.850Z,6.35
2019-01-29T02:53:18.161Z,6.60
2019-01-29T02:59:15.385Z,5.85
2019-01-29T03:05:17.815Z,6.87
2019-01-29T03:11:21.183Z,6.78
2019-01-29T03:17:23.551Z,6.80
2019-01-29T03:23:27.653Z,7.85
2019-01-29T03:29:29.748Z,10.58
2019-01-29T03:35:33.250Z,12.30
2019-01-29T03:41:35.918Z,9.98
2019-01-29T03:47:38.026Z,8.18
2019-01-29T03:53:40.135Z,8.70
2019-01-29T03:59:42.431Z,13.32
2019-01-29T04:05:44.622Z,20.65
2019-01-29T04:11:46.928Z,17.52
2019-01-29T04:17:53.417Z,13.78
2019-01-29T04:23:56.992Z,19.75
2019-01-29T04:29:59.120Z,14.75
2019-01-29T04:36:01.419Z,15.38
2019-01-29T04:42:03.840Z,14.20
2019-01-29T04:48:08.284Z,15.72
2019-01-29T04:54:10.390Z,15.58
2019-01-29T05:00:23.719Z,17.90
2019-01-29T05:06:26.012Z,17.95
2019-01-29T05:12:29.418Z,16.60
2019-01-29T05:18:32.220Z,14.58
2019-01-29T05:24:34.552Z,14.23
2019-01-29T05:30:38.038Z,11.15
2019-01-29T05:36:40.299Z,15.48
2019-01-29T05:42:42.627Z,10.82
2019-01-29T05:48:44.721Z,15.18
2019-01-29T05:54:49.242Z,9.80
2019-01-29T06:00:51.574Z,11.03
2019-01-29T06:06:55.370Z,12.45
2019-01-29T06:12:57.863Z,11.90
2019-01-29T06:19:02.264Z,14.60
2019-01-29T06:25:04.643Z,9.35
2019-01-29T06:31:07.212Z,10.10
2019-01-29T06:37:10.956Z,11.08
2019-01-29T06:43:13.097Z,14.70
2019-01-29T06:49:15.343Z,17.50
2019-01-29T06:55:19.066Z,25.95
2019-01-29T07:01:21.745Z,15.70
2019-01-29T07:07:24.147Z,18.75
2019-01-29T07:13:28.734Z,17.87
2019-01-29T07:19:32.266Z,16.32
2019-01-29T07:25:34.416Z,18.48
2019-01-29T07:31:37.325Z,21.55
2019-01-29T07:37:39.574Z,22.00
2019-01-29T07:43:41.710Z,17.30
2019-01-29T07:49:44.437Z,15.38
2019-01-29T07:55:47.271Z,14.73
2019-01-29T08:01:49.843Z,13.72
2019-01-29T08:07:52.145Z,16.62
2019-01-29T08:13:54.265Z,14.83
2019-01-29T08:19:57.175Z,15.10
2019-01-29T08:25:59.501Z,14.53
2019-01-29T08:32:01.661Z,13.83
2019-01-29T08:38:04.128Z,13.13
2019-01-29T08:44:06.315Z,15.50
2019-01-29T08:50:11.674Z,10.98
2019-01-29T08:56:14.152Z,14.83
2019-01-29T09:02:16.478Z,12.60
2019-01-29T09:08:18.761Z,13.35
2019-01-29T09:14:20.966Z,9.33
2019-01-29T09:20:23.123Z,8.13
2019-01-29T09:26:25.423Z,10.40
2019-01-29T09:32:27.922Z,11.50
2019-01-29T09:38:30.328Z,14.10
2019-01-29T09:44:32.487Z,12.75
2019-01-29T09:50:35.246Z,14.63
2019-01-29T09:56:41.828Z,13.78
2019-01-29T10:02:46.091Z,17.02
2019-01-29T10:08:48.220Z,14.90
2019-01-29T10:14:50.514Z,11.68
2019-01-29T10:20:52.650Z,11.50
2019-01-29T10:26:54.985Z,10.75
2019-01-29T10:32:57.200Z,12.95
2019-01-29T10:38:59.350Z,13.03
2019-01-29T10:45:01.747Z,11.73
2019-01-29T10:51:03.909Z,10.58
2019-01-29T10:57:06.383Z,10.65
2019-01-29T11:03:11.660Z,9.03
2019-01-29T11:09:14.423Z,11.33
2019-01-29T11:15:19.590Z,11.00
2019-01-29T11:21:21.737Z,8.75
2019-01-29T11:27:25.186Z,12.63
2019-01-29T11:33:27.343Z,10.43
2019-01-29T11:39:29.814Z,11.97
2019-01-29T11:45:37.806Z,10.90
2019-01-29T11:51:40.087Z,10.30
2019-01-29T11:57:42.412Z,12.47
2019-01-29T12:03:46.220Z,11.97
2019-01-29T12:09:48.791Z,12.05
2019-01-29T12:15:51.219Z,13.25
2019-01-29T12:21:53.327Z,13.30
2019-01-29T12:27:55.790Z,12.23
2019-01-29T12:33:59.423Z,12.73
2019-01-29T12:40:01.832Z,14.15
2019-01-29T12:46:04.902Z,16.50
2019-01-29T12:52:09.118Z,9.85
2019-01-29T12:58:11.360Z,9.75
2019-01-29T13:04:13.736Z,9.50
2019-01-29T13:10:18.815Z,9.33
2019-01-29T13:16:21.274Z,10.50
2019-01-29T13:22:23.393Z,9.40
2019-01-29T13:28:26.346Z,8.65
2019-01-29T13:34:29.001Z,10.48
2019-01-29T13:40:31.410Z,14.10
2019-01-29T13:46:34.041Z,16.93
2019-01-29T13:52:36.752Z,11.95
2019-01-29T13:58:38.894Z,12.20
2019-01-29T14:04:41.166Z,10.65
2019-01-29T14:10:43.601Z,11.88
2019-01-29T14:16:46.026Z,11.95
2019-01-29T14:22:49.462Z,9.03
2019-01-29T14:28:53.252Z,6.92
2019-01-29T14:34:56.191Z,5.60
2019-01-29T14:41:00.748Z,7.22
2019-01-29T14:47:03.935Z,6.00
2019-01-29T14:53:06.378Z,9.75
2019-01-29T14:59:11.771Z,7.80
2019-01-29T15:05:14.049Z,11.25
2019-01-29T15:11:19.167Z,12.43
2019-01-29T15:17:24.303Z,8.75
2019-01-29T15:23:26.468Z,8.28
2019-01-29T15:29:28.821Z,9.95
2019-01-29T15:35:31.524Z,10.80
2019-01-29T15:41:34.059Z,10.08
2019-01-29T15:47:36.510Z,10.85
2019-01-29T15:53:39.106Z,10.43
2019-01-29T15:59:42.965Z,12.25
2019-01-29T16:05:45.495Z,9.90
2019-01-29T16:11:50.573Z,7.40
2019-01-29T16:17:52.795Z,8.83
2019-01-29T16:23:55.424Z,8.98
2019-01-29T16:29:57.819Z,7.37
2019-01-29T16:36:00.425Z,6.80
2019-01-29T16:42:09.655Z,7.95
2019-01-29T16:48:12.970Z,7.95
2019-01-29T16:54:15.676Z,10.15
2019-01-29T17:00:23.170Z,23.30
2019-01-29T17:06:25.415Z,54.00
2019-01-29T17:12:27.595Z,59.95
2019-01-29T17:18:29.969Z,123.02
2019-01-29T17:24:32.943Z,156.15
2019-01-29T17:30:40.187Z,198.72
2019-01-29T17:36:42.431Z,115.10
2019-01-29T17:42:46.093Z,46.10
2019-01-29T17:48:48.565Z,22.05
2019-01-29T17:54:52.013Z,16.57
2019-01-29T18:00:57.811Z,14.33
2019-01-29T18:07:00.175Z,18.10
2019-01-29T18:13:02.764Z,15.35
2019-01-29T18:19:05.954Z,17.73
2019-01-29T18:25:08.875Z,22.37
2019-01-29T18:31:11.288Z,70.57
2019-01-29T18:37:13.676Z,42.90
2019-01-29T18:43:16.070Z,50.63
2019-01-29T18:49:18.281Z,26.95
2019-01-29T18:55:20.672Z,24.67
2019-01-29T19:01:22.887Z,20.97
2019-01-29T19:07:25.024Z,22.20
2019-01-29T19:13:27.414Z,18.73
2019-01-29T19:19:29.790Z,26.48
2019-01-29T19:25:32.056Z,23.27
2019-01-29T19:31:36.073Z,24.35
2019-01-29T19:37:38.293Z,23.85
2019-01-29T19:43:41.494Z,22.15
2019-01-29T19:49:43.742Z,21.07
2019-01-29T19:55:46.065Z,22.85
2019-01-29T20:01:48.579Z,24.92
2019-01-29T20:07:51.049Z,22.90
2019-01-29T20:13:54.455Z,22.10
2019-01-29T20:19:56.725Z,22.17
2019-01-29T20:25:59.257Z,24.52
2019-01-29T20:32:01.752Z,27.25
2019-01-29T20:38:04.617Z,21.00
2019-01-29T20:44:07.816Z,23.75
2019-01-29T20:50:15.975Z,23.90
2019-01-29T20:56:19.027Z,24.50
2019-01-29T21:02:22.558Z,21.77
2019-01-29T21:08:24.937Z,25.65
2019-01-29T21:14:27.248Z,21.93
2019-01-29T21:20:30.598Z,24.20
2019-01-29T21:26:32.763Z,23.15
2019-01-29T21:32:35.062Z,24.60
2019-01-29T21:38:37.315Z,23.90
2019-01-29T21:44:39.599Z,24.85
2019-01-29T21:50:41.918Z,23.02
2019-01-29T21:56:44.151Z,22.27
2019-01-29T22:02:46.375Z,22.50
2019-01-29T22:08:48.611Z,20.97
2019-01-29T22:14:50.730Z,21.68
2019-01-29T22:20:53.239Z,20.88
2019-01-29T22:26:55.875Z,20.90
2019-01-29T22:32:58.284Z,21.95
2019-01-29T22:39:02.883Z,22.80
2019-01-29T22:45:06.735Z,21.87
2019-01-29T22:51:08.846Z,20.43
2019-01-29T22:57:11.209Z,19.85
2019-01-29T23:03:13.419Z,18.07
2019-01-29T23:09:15.632Z,22.17
2019-01-29T23:15:18.505Z,20.08
2019-01-29T23:21:20.978Z,21.57
2019-01-29T23:27:23.250Z,26.07
2019-01-29T23:33:26.222Z,23.25
2019-01-29T23:39:28.507Z,25.62
2019-01-29T23:45:30.750Z,24.50
2019-01-29T23:51:32.891Z,21.73
2019-01-29T23:57:35.019Z,19.57
